Time;durP1;ratioP1;P1;durP2;ratioP2;P2;SDS_P1;SDS_P2;PMS_P1;PMS_P2;Temp;Humidity;BMP_temperature;BMP_pressure;BME280_temperature;BME280_humidity;BME280_pressure;Samples;Min_cycle;Max_cycle;Signal;HPM_P1;HPM_P2
2022/03/22 00:00:57;;;;;;;38.15;23.55;;;77.10;1920.00;;;;;;4974136;28;20042;-58
2022/03/22 00:03:26;;;;;;;41.05;24.60;;;77.00;1945.60;;;;;;4973982;28;20051;-58
2022/03/22 00:05:52;;;;;;;38.42;23.70;;;76.80;1971.20;;;;;;4973799;28;20125;-59
2022/03/22 00:08:18;;;;;;;43.08;23.52;;;52.00;1996.80;;;;;;4972934;28;20031;-57
2022/03/22 00:10:45;;;;;;;42.15;23.08;;;51.90;1996.80;;;;;;4973632;28;20081;-57
2022/03/22 00:13:10;;;;;;;57.90;31.33;;;51.80;1996.80;;;;;;4973796;28;20027;-59
2022/03/22 00:15:37;;;;;;;40.92;24.77;;;51.80;2022.40;;;;;;4974137;28;20060;-59
2022/03/22 00:18:03;;;;;;;44.13;24.27;;;51.70;2022.40;;;;;;4973598;28;20110;-57
2022/03/22 00:20:29;;;;;;;32.08;20.77;;;51.70;2048.00;;;;;;4973893;28;20118;-60
2022/03/22 00:22:56;;;;;;;38.97;20.83;;;51.50;2048.00;;;;;;4973739;28;20037;-60
2022/03/22 00:25:23;;;;;;;33.72;19.95;;;51.60;2048.00;;;;;;4973389;28;20404;-58
2022/03/22 00:27:51;;;;;;;31.80;20.40;;;51.60;2048.00;;;;;;4973777;28;20504;-59
2022/03/22 00:30:32;;;;;;;36.88;21.98;;;51.60;2048.00;;;;;;4974002;28;20375;-59
2022/03/22 00:33:02;;;;;;;40.00;21.83;;;51.50;2073.60;;;;;;4973696;28;20426;-57
2022/03/22 00:35:33;;;;;;;40.15;21.80;;;51.40;2073.60;;;;;;4973437;28;20029;-58
2022/03/22 00:38:00;;;;;;;39.90;21.60;;;51.40;2099.20;;;;;;4973336;28;20505;-57
2022/03/22 00:40:28;;;;;;;53.65;26.40;;;51.30;2099.20;;;;;;4973668;28;20027;-57
2022/03/22 00:42:53;;;;;;;34.42;20.35;;;26.50;2099.20;;;;;;4972985;28;20062;-60
2022/03/22 00:45:22;;;;;;;29.38;18.85;;;26.50;2099.20;;;;;;4973290;28;20074;-59
2022/03/22 00:47:51;;;;;;;71.82;38.67;;;51.40;2099.20;;;;;;4973567;28;20061;-58
2022/03/22 00:50:20;;;;;;;121.63;60.10;;;51.60;2048.00;;;;;;4973303;28;20054;-57
2022/03/22 00:52:47;;;;;;;92.82;45.65;;;51.70;2022.40;;;;;;4973343;28;20023;-57
2022/03/22 00:55:13;;;;;;;36.40;22.42;;;51.80;2022.40;;;;;;4973075;28;20035;-57
2022/03/22 00:57:40;;;;;;;37.22;22.70;;;51.60;2048.00;;;;;;4973245;28;20182;-58
2022/03/22 01:00:10;;;;;;;38.58;23.77;;;51.60;2073.60;;;;;;4973382;28;20031;-56
2022/03/22 01:02:45;;;;;;;32.88;21.10;;;51.60;2048.00;;;;;;4972977;28;20418;-59
2022/03/22 01:05:14;;;;;;;36.30;22.58;;;51.30;2099.20;;;;;;4972723;28;20118;-58
2022/03/22 01:07:44;;;;;;;43.40;23.17;;;51.40;2099.20;;;;;;4972679;28;20381;-57
2022/03/22 01:10:11;;;;;;;38.70;21.65;;;51.50;2073.60;;;;;;4973002;28;20057;-58
2022/03/22 01:12:39;;;;;;;45.08;24.20;;;51.30;2099.20;;;;;;4972843;28;20031;-57
2022/03/22 01:15:11;;;;;;;40.30;23.67;;;51.20;2099.20;;;;;;4973041;28;20118;-58
2022/03/22 01:17:37;;;;;;;34.72;21.58;;;51.40;2073.60;;;;;;4972733;28;20482;-57
2022/03/22 01:20:05;;;;;;;32.72;20.55;;;51.40;2073.60;;;;;;4972040;28;20031;-59
2022/03/22 01:22:31;;;;;;;37.20;20.17;;;51.40;2073.60;;;;;;4972501;28;20477;-57
2022/03/22 01:24:57;;;;;;;33.92;21.23;;;51.50;2073.60;;;;;;4972534;28;20031;-57
2022/03/22 01:27:22;;;;;;;32.95;20.17;;;51.40;2073.60;;;;;;4972457;28;20037;-57
2022/03/22 01:29:51;;;;;;;42.30;23.88;;;51.40;2073.60;;;;;;4972690;28;20033;-58
2022/03/22 01:32:17;;;;;;;39.22;21.40;;;51.50;2073.60;;;;;;4972641;28;20419;-58
2022/03/22 01:34:43;;;;;;;31.45;20.05;;;51.60;2048.00;;;;;;4972192;28;20113;-58
2022/03/22 01:37:10;;;;;;;32.90;17.60;;;51.60;2048.00;;;;;;4972543;28;20082;-57
2022/03/22 01:39:35;;;;;;;31.52;19.27;;;51.70;2022.40;;;;;;4972408;28;20027;-58
2022/03/22 01:42:01;;;;;;;25.75;17.77;;;51.60;2022.40;;;;;;4971943;28;20034;-57
2022/03/22 01:44:28;;;;;;;28.80;18.75;;;51.50;2048.00;;;;;;4972354;28;20395;-57
2022/03/22 01:46:59;;;;;;;31.10;18.95;;;51.50;2048.00;;;;;;4972106;28;20027;-58
2022/03/22 01:49:25;;;;;;;28.33;16.63;;;51.50;2048.00;;;;;;4972170;28;20043;-57
2022/03/22 01:51:52;;;;;;;42.10;17.83;;;51.50;2048.00;;;;;;4972101;28;20069;-57
2022/03/22 01:54:18;;;;;;;20.10;13.13;;;51.20;2099.20;;;;;;4972427;28;20095;-58
2022/03/22 01:56:44;;;;;;;26.88;16.70;;;26.50;2073.60;;;;;;4972002;28;20031;-57
2022/03/22 01:59:10;;;;;;;27.63;15.88;;;51.30;2099.20;;;;;;4971952;28;20026;-57
2022/03/22 02:07:10;;;;;;;27.75;16.00;;;51.20;2099.20;;;;;;4972295;28;20452;-57
2022/03/22 02:09:35;;;;;;;24.17;14.55;;;26.40;2099.20;;;;;;4971947;28;20057;-59
2022/03/22 02:12:01;;;;;;;29.70;17.60;;;26.50;2099.20;;;;;;4971470;28;20034;-58
2022/03/22 02:14:27;;;;;;;34.17;17.25;;;26.50;2099.20;;;;;;4971742;28;20031;-57
2022/03/22 02:16:53;;;;;;;30.27;17.08;;;26.50;2099.20;;;;;;4971626;28;20034;-57
2022/03/22 02:19:18;;;;;;;24.13;15.27;;;26.30;2124.80;;;;;;4971760;28;20169;-59
2022/03/22 02:21:46;;;;;;;22.50;13.52;;;26.40;2124.80;;;;;;4971538;28;20030;-58
2022/03/22 02:24:11;;;;;;;24.90;14.07;;;26.50;2099.20;;;;;;4971350;28;20113;-59
2022/03/22 02:26:38;;;;;;;25.48;14.65;;;26.50;2099.20;;;;;;4971706;28;20066;-57
2022/03/22 02:29:05;;;;;;;20.30;12.30;;;26.50;2073.60;;;;;;4971438;28;20030;-57
2022/03/22 02:31:31;;;;;;;20.02;11.43;;;26.50;2073.60;;;;;;4970546;28;20030;-57
2022/03/22 02:33:58;;;;;;;19.63;12.38;;;26.50;2073.60;;;;;;4971575;28;20110;-57
2022/03/22 02:36:24;;;;;;;20.70;14.18;;;51.20;2099.20;;;;;;4971202;28;20037;-58
2022/03/22 02:38:51;;;;;;;22.73;13.25;;;51.20;2099.20;;;;;;4971530;28;20027;-57
2022/03/22 02:41:27;;;;;;;22.75;12.70;;;51.20;2073.60;;;;;;4951165;29;20035;-57
2022/03/22 02:43:54;;;;;;;24.88;14.25;;;51.20;2099.20;;;;;;4963333;28;20130;-61
2022/03/22 02:46:19;;;;;;;25.92;15.00;;;51.20;2099.20;;;;;;4971374;28;20046;-58
2022/03/22 02:48:45;;;;;;;32.67;16.98;;;26.50;2073.60;;;;;;4971423;28;20026;-57
2022/03/22 02:51:12;;;;;;;24.85;15.30;;;26.30;2099.20;;;;;;4971207;28;20441;-59
2022/03/22 02:53:38;;;;;;;27.40;18.67;;;26.30;2124.80;;;;;;4971510;28;20031;-58
2022/03/22 02:56:04;;;;;;;27.52;18.85;;;26.00;2150.40;;;;;;4971217;28;20038;-57
2022/03/22 02:58:30;;;;;;;25.33;16.42;;;26.10;2176.00;;;;;;4971203;28;20397;-61
2022/03/22 03:00:55;;;;;;;27.25;16.17;;;26.20;2150.40;;;;;;4971274;28;20055;-59
2022/03/22 03:03:22;;;;;;;28.05;15.82;;;26.10;2150.40;;;;;;4970897;28;20047;-58
2022/03/22 03:05:49;;;;;;;25.92;15.25;;;26.30;2150.40;;;;;;4971128;28;20047;-60
2022/03/22 03:08:15;;;;;;;25.00;14.70;;;26.20;2150.40;;;;;;4971296;28;20026;-57
2022/03/22 03:10:42;;;;;;;24.33;14.38;;;26.30;2124.80;;;;;;4971021;28;20474;-61
2022/03/22 03:13:08;;;;;;;30.20;17.58;;;26.30;2124.80;;;;;;4971040;28;20027;-58
2022/03/22 03:15:34;;;;;;;21.85;14.25;;;26.40;2124.80;;;;;;4970857;28;20034;-59
2022/03/22 03:18:00;;;;;;;29.17;17.88;;;26.50;2099.20;;;;;;4971130;28;20030;-58
2022/03/22 03:20:26;;;;;;;24.13;16.15;;;26.50;2099.20;;;;;;4971130;28;20034;-59
2022/03/22 03:22:52;;;;;;;28.17;16.90;;;51.20;2124.80;;;;;;4970917;28;20472;-58
2022/03/22 03:25:18;;;;;;;31.52;18.67;;;51.20;2099.20;;;;;;4971241;28;20035;-62
2022/03/22 03:27:44;;;;;;;22.45;14.55;;;51.30;2099.20;;;;;;4970931;28;20081;-57
2022/03/22 03:30:10;;;;;;;21.58;12.85;;;51.40;2073.60;;;;;;4970821;28;20039;-60
2022/03/22 03:32:36;;;;;;;22.70;13.07;;;51.40;2073.60;;;;;;4971280;28;20428;-58
2022/03/22 03:35:03;;;;;;;21.05;14.15;;;51.40;2073.60;;;;;;4970845;28;20558;-60
2022/03/22 03:37:33;;;;;;;23.30;14.32;;;51.40;2073.60;;;;;;4970920;28;20065;-60
2022/03/22 03:40:01;;;;;;;29.60;18.20;;;51.50;2073.60;;;;;;4970677;28;20050;-59
2022/03/22 03:42:26;;;;;;;41.92;21.70;;;51.40;2073.60;;;;;;4970813;28;20114;-58
2022/03/22 03:47:36;;;;;;;28.33;16.77;;;51.40;2073.60;;;;;;4974796;28;20540;-59
2022/03/22 03:50:05;;;;;;;21.63;11.85;;;51.40;2048.00;;;;;;4974454;28;20067;-58
2022/03/22 03:52:36;;;;;;;23.20;16.08;;;51.40;2073.60;;;;;;4974051;28;20034;-57
2022/03/22 03:55:05;;;;;;;26.02;16.60;;;51.30;2073.60;;;;;;4974104;28;20042;-63
2022/03/22 03:57:32;;;;;;;24.25;13.90;;;51.40;2073.60;;;;;;4974040;28;20023;-58
2022/03/22 03:59:58;;;;;;;29.77;16.90;;;51.30;2073.60;;;;;;4974536;28;20430;-58
2022/03/22 04:02:23;;;;;;;27.52;17.15;;;51.40;2073.60;;;;;;4974064;28;20050;-59
2022/03/22 04:04:53;;;;;;;36.30;21.73;;;51.40;2073.60;;;;;;4973831;28;20544;-57
2022/03/22 04:07:22;;;;;;;45.78;26.73;;;51.30;2099.20;;;;;;4973848;28;20066;-58
2022/03/22 04:09:48;;;;;;;52.08;28.73;;;51.30;2073.60;;;;;;4974209;28;20422;-58
2022/03/22 04:12:14;;;;;;;39.13;25.90;;;51.30;2073.60;;;;;;4973787;28;20389;-58
2022/03/22 04:14:40;;;;;;;42.47;27.73;;;51.30;2099.20;;;;;;4973718;28;20035;-62
2022/03/22 04:17:08;;;;;;;30.15;18.17;;;51.30;2073.60;;;;;;4973979;28;20035;-58
2022/03/22 04:19:37;;;;;;;37.03;17.23;;;51.30;2073.60;;;;;;4973769;28;20381;-59
2022/03/22 04:22:04;;;;;;;29.60;16.92;;;51.20;2073.60;;;;;;4973533;28;20027;-58
2022/03/22 04:24:30;;;;;;;23.48;15.13;;;26.50;2073.60;;;;;;4973485;28;20465;-58
2022/03/22 04:32:41;;;;;;;17.25;10.68;;;26.20;2124.80;;;;;;4973873;28;20539;-58
2022/03/22 04:32:44;;;;;;;25.27;12.88;;;26.10;2150.40;;;;;;4974076;28;20094;-57
2022/03/22 04:35:14;;;;;;;65.22;30.88;;;26.00;2176.00;;;;;;4973314;28;20118;-58
2022/03/22 04:37:40;;;;;;;50.83;29.63;;;26.10;2176.00;;;;;;4973326;28;20027;-58
2022/03/22 04:40:07;;;;;;;83.30;39.05;;;26.10;2150.40;;;;;;4973728;28;20023;-58
2022/03/22 04:42:33;;;;;;;40.10;19.63;;;26.10;2150.40;;;;;;4973352;28;20035;-58
2022/03/22 04:44:59;;;;;;;35.05;17.23;;;26.00;2150.40;;;;;;4973650;28;20039;-62
2022/03/22 04:47:26;;;;;;;36.03;23.67;;;26.20;2150.40;;;;;;4973581;28;20033;-60
2022/03/22 04:49:52;;;;;;;30.75;19.10;;;26.30;2124.80;;;;;;4973171;28;20023;-61
2022/03/22 04:57:47;;;;;;;25.33;19.08;;;26.20;2150.40;;;;;;4973564;28;20037;-61
2022/03/22 05:00:13;;;;;;;26.80;22.70;;;26.10;2176.00;;;;;;4973078;28;20039;-61
2022/03/22 05:02:39;;;;;;;31.23;17.60;;;26.30;2150.40;;;;;;4973064;28;20497;-57
2022/03/22 05:05:05;;;;;;;17.95;12.60;;;26.30;2150.40;;;;;;4972968;28;20092;-58
2022/03/22 05:07:30;;;;;;;20.15;12.07;;;26.30;2176.00;;;;;;4972890;28;20098;-60
2022/03/22 05:09:56;;;;;;;21.67;13.73;;;26.20;2176.00;;;;;;4973212;28;20392;-62
2022/03/22 05:12:22;;;;;;;21.88;15.80;;;26.10;2201.60;;;;;;4973012;28;20030;-60
2022/03/22 05:14:50;;;;;;;18.92;12.52;;;26.20;2201.60;;;;;;4972896;28;20568;-59
2022/03/22 05:17:23;;;;;;;22.45;13.52;;;26.20;2201.60;;;;;;4972978;28;20027;-59
2022/03/22 05:19:50;;;;;;;18.98;12.65;;;26.50;2176.00;;;;;;4973305;28;20102;-59
2022/03/22 05:22:17;;;;;;;19.00;11.73;;;26.50;2150.40;;;;;;4972879;28;20027;-62
2022/03/22 05:24:44;;;;;;;20.80;14.45;;;51.30;2150.40;;;;;;4972431;28;20046;-59
2022/03/22 05:27:09;;;;;;;20.05;13.02;;;51.50;2150.40;;;;;;4972612;28;20023;-59
2022/03/22 05:29:35;;;;;;;19.30;11.40;;;51.60;2124.80;;;;;;4972680;28;20106;-58
2022/03/22 05:32:01;;;;;;;18.55;12.68;;;51.60;2150.40;;;;;;4972415;28;20473;-58
2022/03/22 05:34:27;;;;;;;23.88;11.68;;;51.60;2124.80;;;;;;4952325;29;20065;-62
2022/03/22 05:36:52;;;;;;;18.67;11.77;;;51.80;2099.20;;;;;;4972235;28;20038;-60
2022/03/22 05:39:19;;;;;;;22.08;11.95;;;51.80;2073.60;;;;;;4972444;28;20027;-60
2022/03/22 05:41:45;;;;;;;18.50;10.32;;;51.80;2099.20;;;;;;4972490;28;20134;-58
2022/03/22 05:44:12;;;;;;;19.73;11.65;;;51.90;2073.60;;;;;;4972214;28;20038;-61
2022/03/22 05:46:42;;;;;;;18.27;11.35;;;52.00;2073.60;;;;;;4972263;28;20893;-58
2022/03/22 05:49:11;;;;;;;21.05;11.73;;;76.80;2048.00;;;;;;4972417;28;20128;-58
2022/03/22 05:51:37;;;;;;;28.05;14.60;;;77.00;2022.40;;;;;;4971750;28;20037;-61
2022/03/22 05:54:03;;;;;;;24.92;14.02;;;128.00;1894.40;;;;;;4971883;28;20034;-59
2022/03/22 05:56:29;;;;;;;23.63;15.15;;;154.00;1740.80;;;;;;4951971;28;20027;-58
2022/03/22 05:58:58;;;;;;;29.25;15.95;;;154.10;1715.20;;;;;;4972342;28;20114;-58
2022/03/22 06:01:24;;;;;;;28.80;17.85;;;128.90;1740.80;;;;;;4971782;28;20054;-57
2022/03/22 06:03:50;;;;;;;21.25;13.25;;;128.30;1817.60;;;;;;4971765;28;20149;-58
2022/03/22 06:06:16;;;;;;;26.25;14.05;;;128.10;1843.20;;;;;;4972300;28;20051;-58
2022/03/22 06:08:42;;;;;;;21.65;14.50;;;179.50;1689.60;;;;;;4971630;28;20030;-58
2022/03/22 06:11:08;;;;;;;23.90;14.50;;;230.40;1510.40;;;;;;4971920;28;20038;-58
2022/03/22 06:13:34;;;;;;;22.80;16.08;;;231.20;1408.00;;;;;;4971667;28;20027;-61
2022/03/22 06:16:00;;;;;;;24.98;15.77;;;256.50;1356.80;;;;;;4971840;28;20089;-59
2022/03/22 06:18:26;;;;;;;27.02;16.90;;;282.20;1331.20;;;;;;4971779;28;20019;-59
2022/03/22 06:20:52;;;;;;;26.50;18.73;;;307.80;1280.00;;;;;;4971555;28;20034;-59
2022/03/22 06:23:19;;;;;;;29.40;18.35;;;332.90;1280.00;;;;;;4971916;28;20070;-59
2022/03/22 06:25:45;;;;;;;30.58;18.60;;;308.10;1280.00;;;;;;4971458;28;20477;-61
2022/03/22 06:28:13;;;;;;;22.13;18.63;;;333.20;1280.00;;;;;;4971500;28;20035;-57
2022/03/22 06:30:39;;;;;;;24.25;17.13;;;358.70;1203.20;;;;;;4971641;28;20042;-58
2022/03/22 06:33:13;;;;;;;27.98;19.33;;;359.20;1177.60;;;;;;4971275;28;20260;-59
2022/03/22 06:35:40;;;;;;;35.75;21.13;;;384.00;1177.60;;;;;;4971697;28;20422;-60
2022/03/22 06:38:06;;;;;;;23.63;18.75;;;384.50;1126.40;;;;;;4971556;28;20098;-59
2022/03/22 06:40:34;;;;;;;23.70;18.48;;;409.70;1152.00;;;;;;4971312;28;20058;-58
2022/03/22 06:43:01;;;;;;;23.33;17.63;;;410.00;1126.40;;;;;;4971378;28;20027;-63
2022/03/22 06:45:27;;;;;;;23.98;20.48;;;410.30;1126.40;;;;;;4971247;28;20125;-63
2022/03/22 06:47:54;;;;;;;24.85;20.08;;;435.70;1075.20;;;;;;4971181;28;20031;-63
2022/03/22 06:50:20;;;;;;;21.38;19.08;;;435.40;1075.20;;;;;;4971249;28;20026;-59
2022/03/22 06:52:47;;;;;;;28.88;25.80;;;435.80;1049.60;;;;;;4971550;28;20078;-59
2022/03/22 06:55:16;;;;;;;28.42;24.90;;;436.10;1049.60;;;;;;4971081;28;20113;-57
2022/03/22 06:57:42;;;;;;;29.02;25.30;;;461.00;1024.00;;;;;;4971102;28;20394;-60
2022/03/22 07:00:11;;;;;;;27.67;24.63;;;461.20;1024.00;;;;;;4971375;28;20030;-56
2022/03/22 07:02:41;;;;;;;27.80;23.92;;;487.10;972.80;;;;;;4952126;28;20367;-57
2022/03/22 07:05:08;;;;;;;27.23;24.42;;;563.30;921.60;;;;;;4971082;28;20089;-56
2022/03/22 07:07:35;;;;;;;26.52;23.90;;;564.10;870.40;;;;;;4970950;28;20110;-58
2022/03/22 07:10:01;;;;;;;53.35;44.85;;;614.70;819.20;;;;;;4971218;28;20035;-57
2022/03/22 07:12:27;;;;;;;36.65;30.98;;;614.90;819.20;;;;;;4971066;28;20500;-58
2022/03/22 07:14:53;;;;;;;36.42;31.02;;;615.30;793.60;;;;;;4970999;28;20078;-56
2022/03/22 07:17:19;;;;;;;43.33;36.78;;;666.30;768.00;;;;;;4971309;28;20118;-60
2022/03/22 07:19:45;;;;;;;28.02;25.27;;;666.00;768.00;;;;;;4974861;28;20058;-58
2022/03/22 07:22:10;;;;;;;28.40;25.58;;;691.20;742.40;;;;;;4974538;28;20023;-58
2022/03/22 07:24:36;;;;;;;25.92;23.33;;;666.40;742.40;;;;;;4974876;28;20390;-59
2022/03/22 07:27:04;;;;;;;24.45;22.13;;;691.50;716.80;;;;;;4974646;28;20027;-56
2022/03/22 07:29:30;;;;;;;21.83;19.85;;;665.60;742.40;;;;;;4974761;28;20041;-58
2022/03/22 07:31:57;;;;;;;21.70;19.60;;;666.00;716.80;;;;;;4974665;28;20479;-59
2022/03/22 07:34:24;;;;;;;20.70;18.77;;;666.00;742.40;;;;;;4974492;28;20031;-56
2022/03/22 07:36:53;;;;;;;22.35;20.08;;;666.30;716.80;;;;;;4974535;28;20027;-56
2022/03/22 07:39:21;;;;;;;24.30;21.88;;;666.50;742.40;;;;;;4974713;28;20045;-56
2022/03/22 07:41:47;;;;;;;22.70;20.60;;;691.70;716.80;;;;;;4974711;28;20478;-57
2022/03/22 07:44:13;;;;;;;23.15;20.80;;;716.80;716.80;;;;;;4974358;28;20042;-59
2022/03/22 07:46:43;;;;;;;22.92;20.50;;;692.10;691.20;;;;;;4974395;28;20039;-59
2022/03/22 07:54:41;;;;;;;23.05;20.88;;;692.10;665.60;;;;;;4974694;28;20026;-59
2022/03/22 07:57:07;;;;;;;21.98;19.20;;;717.00;665.60;;;;;;4974399;28;20035;-60
2022/03/22 07:59:33;;;;;;;24.27;21.65;;;717.20;691.20;;;;;;4974303;28;20037;-60
2022/03/22 08:01:59;;;;;;;23.25;21.13;;;742.40;665.60;;;;;;4974450;28;20026;-59
2022/03/22 08:04:25;;;;;;;26.08;23.30;;;742.50;665.60;;;;;;4974040;28;20046;-59
2022/03/22 08:06:51;;;;;;;24.13;21.67;;;742.90;640.00;;;;;;4974145;28;20034;-59
2022/03/22 08:09:17;;;;;;;24.48;21.88;;;717.50;640.00;;;;;;4974282;28;20027;-59
2022/03/22 08:11:42;;;;;;;22.52;20.13;;;717.50;640.00;;;;;;4973641;28;20034;-59
2022/03/22 08:14:08;;;;;;;24.48;22.27;;;742.60;640.00;;;;;;4974130;28;20605;-59
2022/03/22 08:16:38;;;;;;;18.70;17.10;;;717.50;614.40;;;;;;4973704;28;20018;-59
2022/03/22 08:19:07;;;;;;;25.20;22.88;;;717.40;614.40;;;;;;4973776;28;20113;-59
2022/03/22 08:21:34;;;;;;;22.15;19.83;;;717.40;614.40;;;;;;4973538;28;20030;-59
2022/03/22 08:24:00;;;;;;;20.55;18.45;;;742.50;614.40;;;;;;4973784;28;20109;-57
2022/03/22 08:26:27;;;;;;;20.58;18.55;;;717.70;588.80;;;;;;4973535;28;20474;-60
2022/03/22 08:28:54;;;;;;;22.20;20.20;;;742.60;614.40;;;;;;4973134;28;20030;-60
2022/03/22 08:31:20;;;;;;;20.98;18.92;;;717.50;614.40;;;;;;4972962;28;20027;-58
2022/03/22 08:33:46;;;;;;;21.55;19.30;;;692.10;614.40;;;;;;4973688;28;20045;-60
2022/03/22 08:36:11;;;;;;;22.25;19.48;;;742.40;640.00;;;;;;4973411;28;20039;-59
2022/03/22 08:38:37;;;;;;;23.10;20.98;;;717.50;614.40;;;;;;4973623;28;20072;-59
2022/03/22 08:41:03;;;;;;;20.63;18.73;;;717.70;614.40;;;;;;4973334;28;20053;-59
2022/03/22 08:43:30;;;;;;;20.20;18.17;;;717.70;614.40;;;;;;4973347;28;20027;-59
2022/03/22 08:45:56;;;;;;;22.27;19.98;;;742.90;640.00;;;;;;4973326;28;20046;-60
2022/03/22 08:48:23;;;;;;;22.65;20.25;;;743.10;614.40;;;;;;4973358;28;20050;-61
2022/03/22 08:50:50;;;;;;;24.85;22.40;;;742.60;640.00;;;;;;4973303;28;20086;-58
2022/03/22 08:53:18;;;;;;;19.20;17.30;;;742.80;640.00;;;;;;4973615;28;20077;-59
2022/03/22 08:55:45;;;;;;;20.65;18.85;;;717.70;640.00;;;;;;4973332;28;20023;-60
2022/03/22 08:58:11;;;;;;;19.88;17.77;;;717.50;614.40;;;;;;4973256;28;20027;-59
2022/03/22 09:00:38;;;;;;;19.02;17.05;;;717.00;640.00;;;;;;4973322;28;20030;-58
2022/03/22 09:03:05;;;;;;;24.50;21.63;;;666.20;665.60;;;;;;4972904;28;20053;-60
2022/03/22 09:08:16;;;;;;;24.27;20.90;;;665.70;665.60;;;;;;4973406;28;20544;-58
2022/03/22 09:10:43;;;;;;;21.55;18.75;;;614.40;691.20;;;;;;4973190;28;20079;-59
2022/03/22 09:13:09;;;;;;;23.58;19.92;;;588.90;742.40;;;;;;4973063;28;20034;-58
2022/03/22 09:15:38;;;;;;;18.35;16.50;;;563.60;768.00;;;;;;4972725;28;20034;-58
2022/03/22 09:18:04;;;;;;;27.05;21.63;;;512.60;793.60;;;;;;4972761;28;20027;-59
2022/03/22 09:20:32;;;;;;;23.13;15.85;;;512.30;793.60;;;;;;4972628;28;20104;-56
2022/03/22 09:23:00;;;;;;;24.73;17.27;;;487.30;844.80;;;;;;4972712;28;20110;-59
2022/03/22 09:25:27;;;;;;;20.75;17.35;;;486.80;870.40;;;;;;4972862;28;20393;-59
2022/03/22 09:27:54;;;;;;;60.28;38.55;;;486.70;819.20;;;;;;4972642;28;20034;-59
2022/03/22 09:30:21;;;;;;;68.00;44.47;;;486.50;870.40;;;;;;4972689;28;20370;-59
2022/03/22 09:32:47;;;;;;;78.80;54.15;;;486.80;844.80;;;;;;4972584;28;20039;-58
2022/03/22 09:35:17;;;;;;;26.77;22.13;;;486.50;870.40;;;;;;4972313;28;20034;-59
2022/03/22 09:37:43;;;;;;;20.95;15.90;;;461.50;896.00;;;;;;4972200;28;20058;-56
2022/03/22 09:40:12;;;;;;;28.60;21.13;;;461.20;921.60;;;;;;4972509;28;20481;-57
2022/03/22 09:42:42;;;;;;;21.83;16.83;;;461.30;896.00;;;;;;4971991;28;20038;-55
2022/03/22 09:45:09;;;;;;;19.35;15.75;;;460.90;921.60;;;;;;4972442;28;20062;-59
2022/03/22 09:47:38;;;;;;;18.95;15.98;;;461.10;947.20;;;;;;4972425;28;20030;-55
2022/03/22 09:50:06;;;;;;;19.33;15.15;;;435.90;947.20;;;;;;4972180;28;20433;-55
2022/03/22 09:52:34;;;;;;;21.45;14.82;;;436.00;947.20;;;;;;4971969;28;20054;-56
2022/03/22 09:55:00;;;;;;;18.17;15.27;;;435.80;947.20;;;;;;4972297;28;20031;-59
2022/03/22 09:57:26;;;;;;;25.52;18.10;;;435.80;947.20;;;;;;4972033;28;20110;-58
2022/03/22 09:59:51;;;;;;;67.53;48.95;;;435.70;972.80;;;;;;4971844;28;20114;-58
2022/03/22 10:02:29;;;;;;;21.95;16.75;;;435.40;921.60;;;;;;4971712;28;20422;-56
2022/03/22 10:04:55;;;;;;;26.15;19.48;;;435.90;921.60;;;;;;4963941;28;20054;-57
2022/03/22 10:07:23;;;;;;;38.67;29.58;;;436.10;947.20;;;;;;4971619;28;20030;-58
2022/03/22 10:10:02;;;;;;;28.58;21.77;;;460.80;947.20;;;;;;4954249;28;20035;-57
2022/03/22 10:12:36;;;;;;;61.30;38.28;;;436.10;947.20;;;;;;4971481;28;20030;-55
2022/03/22 10:15:16;;;;;;;128.23;78.70;;;436.10;921.60;;;;;;4971713;28;20522;-58
2022/03/22 10:17:43;;;;;;;26.60;20.05;;;435.60;921.60;;;;;;4971349;28;20401;-59
2022/03/22 10:20:23;;;;;;;64.43;40.95;;;435.80;921.60;;;;;;4971642;28;20030;-58
2022/03/22 10:22:58;;;;;;;23.73;16.58;;;435.70;947.20;;;;;;4971533;28;20517;-56
2022/03/22 10:25:24;;;;;;;46.80;30.08;;;435.50;947.20;;;;;;4951230;29;20134;-59
2022/03/22 10:27:55;;;;;;;24.88;17.13;;;435.50;972.80;;;;;;4971141;28;20023;-57
2022/03/22 10:30:21;;;;;;;54.20;33.60;;;435.60;972.80;;;;;;4971365;28;20015;-59
2022/03/22 10:32:54;;;;;;;20.48;15.45;;;435.80;947.20;;;;;;4971560;28;20462;-58
2022/03/22 10:35:28;;;;;;;42.45;29.17;;;435.60;947.20;;;;;;4971633;28;20558;-59
2022/03/22 10:38:15;;;;;;;76.32;50.85;;;435.60;921.60;;;;;;4971149;28;20035;-59
2022/03/22 10:40:44;;;;;;;28.05;16.98;;;435.60;947.20;;;;;;4971064;28;20018;-60
2022/03/22 10:43:15;;;;;;;83.00;60.67;;;435.60;947.20;;;;;;4971116;28;20030;-58
2022/03/22 10:45:50;;;;;;;41.50;30.77;;;435.60;921.60;;;;;;4971136;28;20034;-59
2022/03/22 10:48:22;;;;;;;101.55;72.88;;;435.60;921.60;;;;;;4971520;28;20023;-59
2022/03/22 10:50:49;;;;;;;178.88;121.13;;;435.30;921.60;;;;;;4971434;28;20544;-59
2022/03/22 10:53:17;;;;;;;100.13;64.93;;;435.60;921.60;;;;;;4970567;28;20082;-59
2022/03/22 10:55:44;;;;;;;224.57;153.27;;;435.50;921.60;;;;;;4971349;28;20057;-59
2022/03/22 10:58:14;;;;;;;53.50;38.50;;;435.50;921.60;;;;;;4970694;28;20474;-58
2022/03/22 11:00:43;;;;;;;68.28;47.53;;;435.80;921.60;;;;;;4967382;28;20043;-56
2022/03/22 11:03:10;;;;;;;23.80;17.92;;;435.40;921.60;;;;;;4965943;28;20055;-58
2022/03/22 11:05:37;;;;;;;57.28;41.20;;;410.10;947.20;;;;;;4969010;28;20509;-60
2022/03/22 11:08:03;;;;;;;50.60;37.08;;;410.20;947.20;;;;;;4970926;28;20039;-60
2022/03/22 11:10:29;;;;;;;28.45;18.92;;;410.30;947.20;;;;;;4968676;28;20038;-56
2022/03/22 11:12:58;;;;;;;24.88;15.65;;;435.20;947.20;;;;;;4970101;28;20027;-60
2022/03/22 11:15:26;;;;;;;49.80;33.58;;;435.20;947.20;;;;;;4970916;28;20096;-59
2022/03/22 11:17:52;;;;;;;126.55;95.25;;;435.30;947.20;;;;;;4970848;28;20110;-59
2022/03/22 11:20:22;;;;;;;107.05;74.80;;;435.20;972.80;;;;;;4971140;28;20038;-60
2022/03/22 11:22:51;;;;;;;35.45;27.35;;;435.50;947.20;;;;;;4971014;28;20046;-60
2022/03/22 11:25:24;;;;;;;24.17;16.95;;;435.60;972.80;;;;;;4971262;28;20043;-59
2022/03/22 11:28:07;;;;;;;32.17;25.35;;;435.50;947.20;;;;;;4970798;28;20027;-56
2022/03/22 11:30:34;;;;;;;44.15;37.00;;;435.40;921.60;;;;;;4970905;28;20034;-59
2022/03/22 11:35:50;;;;;;;25.67;18.90;;;435.30;947.20;;;;;;4971011;28;20130;-59
2022/03/22 11:38:58;;;;;;;32.67;27.30;;;435.40;972.80;;;;;;4970623;28;20492;-59
2022/03/22 11:44:36;;;;;;;30.35;26.60;;;435.60;947.20;;;;;;4892312;29;20096;-60
2022/03/22 11:47:17;;;;;;;45.85;24.83;;;435.60;947.20;;;;;;4892260;29;20052;-60
2022/03/22 11:50:00;;;;;;;20.85;15.68;;;435.50;972.80;;;;;;4892271;29;20033;-60
2022/03/22 11:52:35;;;;;;;27.08;18.20;;;435.50;998.40;;;;;;4892361;29;20044;-59
2022/03/22 11:55:01;;;;;;;23.00;19.17;;;410.50;947.20;;;;;;4892478;29;20036;-60
2022/03/22 11:57:39;;;;;;;24.55;16.67;;;435.50;947.20;;;;;;4892429;29;20152;-59
2022/03/22 12:00:05;;;;;;;25.75;20.90;;;435.40;947.20;;;;;;4892353;29;20047;-60
2022/03/22 12:02:31;;;;;;;21.65;16.52;;;435.20;921.60;;;;;;4892291;29;20159;-59
2022/03/22 12:04:57;;;;;;;22.58;18.20;;;435.40;972.80;;;;;;4894184;29;20185;-56
2022/03/22 12:07:27;;;;;;;19.27;15.07;;;410.20;947.20;;;;;;4895400;29;20512;-59
2022/03/22 12:10:01;;;;;;;38.20;29.55;;;410.30;972.80;;;;;;4895341;29;20041;-57
2022/03/22 12:12:27;;;;;;;32.50;24.02;;;410.40;947.20;;;;;;4942285;28;20053;-60
2022/03/22 12:14:55;;;;;;;28.45;21.40;;;410.20;947.20;;;;;;4973907;28;20034;-59
2022/03/22 12:17:21;;;;;;;26.23;18.92;;;410.20;947.20;;;;;;4973550;28;20418;-60
2022/03/22 12:19:46;;;;;;;32.53;23.13;;;410.40;998.40;;;;;;4974175;28;20023;-61
2022/03/22 12:22:13;;;;;;;34.28;23.60;;;435.30;998.40;;;;;;4973239;28;20386;-59
2022/03/22 12:24:39;;;;;;;48.00;34.88;;;410.10;947.20;;;;;;4973658;28;20027;-60
2022/03/22 12:27:10;;;;;;;34.17;24.60;;;410.50;972.80;;;;;;4973493;28;20037;-58
2022/03/22 12:29:40;;;;;;;22.58;15.57;;;435.30;972.80;;;;;;4973671;28;20034;-60
2022/03/22 12:32:18;;;;;;;42.47;26.83;;;435.40;972.80;;;;;;4973564;28;20023;-60
2022/03/22 12:34:45;;;;;;;21.08;16.60;;;435.40;972.80;;;;;;4973383;28;20046;-58
2022/03/22 12:37:13;;;;;;;48.53;39.25;;;410.10;998.40;;;;;;4971988;28;20114;-58
2022/03/22 12:39:43;;;;;;;61.25;42.95;;;409.90;998.40;;;;;;4971675;28;20027;-58